createdAt,value
2023-02-19T00:54:33.407Z,100287.72
2023-02-19T01:59:44.683Z,100260.25
2023-02-19T02:09:41.218Z,100251.00
2023-02-19T02:12:10.941Z,100232.88
2023-02-19T02:14:50.780Z,100235.59
2023-02-19T02:17:30.801Z,100233.03
2023-02-19T02:20:35.463Z,100219.94
2023-02-19T02:23:39.251Z,100229.88
2023-02-19T02:26:59.501Z,100222.66
2023-02-19T02:33:32.822Z,100237.88
2023-02-19T02:39:55.685Z,100206.91
2023-02-19T02:45:39.867Z,100235.22
2023-02-19T02:49:06.080Z,100216.34
2023-02-19T03:03:47.939Z,100225.34
2023-02-19T03:06:32.029Z,100211.56
2023-02-19T03:09:18.656Z,100209.28
2023-02-19T03:12:12.025Z,100205.03
2023-02-19T03:15:29.265Z,100190.97
2023-02-19T03:40:34.609Z,100196.06
2023-02-19T03:43:26.800Z,100198.06
2023-02-19T04:01:26.404Z,100210.00
2023-02-19T04:04:31.356Z,100217.72
2023-02-19T04:07:45.535Z,100216.09
2023-02-19T04:13:26.035Z,100213.38
2023-02-19T04:15:57.352Z,100216.44
2023-02-19T04:25:49.983Z,100230.50
2023-02-19T04:31:27.870Z,100221.88
2023-02-19T04:34:02.568Z,100222.91
2023-02-19T04:40:26.546Z,100238.16
2023-02-19T04:43:13.806Z,100238.91
2023-02-19T04:45:42.611Z,100234.06
2023-02-19T04:54:40.072Z,100252.97
2023-02-19T04:57:28.566Z,100255.63
2023-02-19T05:00:53.478Z,100240.03
2023-02-19T05:09:37.880Z,100258.59
2023-02-19T05:21:26.970Z,100248.81
2023-02-19T05:24:32.182Z,100255.03
2023-02-19T05:27:31.647Z,100254.44
2023-02-19T05:39:46.490Z,100277.91
2023-02-19T05:42:52.597Z,100274.69
2023-02-19T05:57:58.492Z,100294.19
2023-02-19T06:00:51.650Z,100290.84
2023-02-19T06:03:20.600Z,100292.41
2023-02-19T06:05:57.516Z,100307.66
2023-02-19T06:08:42.948Z,100306.38
2023-02-19T06:11:40.027Z,100316.84
2023-02-19T06:14:29.837Z,100311.88
2023-02-19T06:23:41.443Z,100316.47
2023-02-19T06:35:43.628Z,100336.56
2023-02-19T06:38:29.296Z,100346.78
2023-02-19T06:49:40.433Z,100352.78
2023-02-19T07:07:13.789Z,100354.91
2023-02-19T07:20:17.946Z,100379.09
2023-02-19T07:23:20.404Z,100375.00
2023-02-19T08:01:19.638Z,100435.16
2023-02-19T08:03:47.067Z,100449.94
2023-02-19T08:06:14.212Z,100445.41
2023-02-19T08:08:41.003Z,100455.97
2023-02-19T08:11:26.399Z,100451.47
2023-02-19T08:13:53.575Z,100447.00
2023-02-19T08:16:30.026Z,100451.38
2023-02-19T08:18:59.932Z,100457.69
2023-02-19T08:21:26.711Z,100456.56
2023-02-19T08:23:53.172Z,100463.66
2023-02-19T08:26:19.627Z,100462.63
2023-02-19T08:28:46.283Z,100468.00
2023-02-19T08:31:13.285Z,100474.13
2023-02-19T08:33:40.407Z,100467.22
2023-02-19T08:36:08.902Z,100479.59
2023-02-19T08:38:36.305Z,100492.72
2023-02-19T08:41:11.712Z,100493.75
2023-02-19T08:43:38.894Z,100496.38
2023-02-19T08:46:06.924Z,100502.50
2023-02-19T08:48:33.813Z,100500.66
2023-02-19T08:51:05.391Z,100510.28
2023-02-19T08:53:32.592Z,100511.03
2023-02-19T08:55:59.089Z,100511.13
2023-02-19T08:58:26.235Z,100519.16
2023-02-19T09:00:53.074Z,100521.88
2023-02-19T09:03:19.480Z,100530.56
2023-02-19T09:05:46.753Z,100528.00
2023-02-19T09:08:13.154Z,100534.91
2023-02-19T09:10:39.715Z,100528.84
2023-02-19T09:13:06.224Z,100539.41
2023-02-19T09:15:33.320Z,100533.09
2023-02-19T09:18:00.047Z,100526.16
2023-02-19T09:20:26.526Z,100544.38
2023-02-19T09:22:57.326Z,100546.78
2023-02-19T09:25:23.792Z,100552.81
2023-02-19T09:27:50.243Z,100545.75
2023-02-19T09:30:16.724Z,100549.09
2023-02-19T09:32:43.125Z,100551.53
2023-02-19T09:35:09.526Z,100546.25
2023-02-19T09:37:36.094Z,100547.88
2023-02-19T09:40:02.610Z,100550.09
2023-02-19T09:42:31.253Z,100560.44
2023-02-19T09:44:59.559Z,100545.25
2023-02-19T09:47:31.600Z,100549.66
2023-02-19T09:50:06.898Z,100552.91
2023-02-19T09:52:52.232Z,100560.59
2023-02-19T09:55:39.117Z,100551.44
2023-02-19T09:58:35.411Z,100555.88
2023-02-19T10:01:03.854Z,100556.56
2023-02-19T10:03:33.578Z,100552.81
2023-02-19T10:06:05.026Z,100545.09
2023-02-19T10:08:33.678Z,100550.78
2023-02-19T10:11:01.269Z,100549.28
2023-02-19T10:13:34.313Z,100547.91
2023-02-19T10:16:02.350Z,100558.38
2023-02-19T10:18:39.506Z,100554.53
2023-02-19T10:21:06.207Z,100563.00
2023-02-19T10:23:32.824Z,100563.41
2023-02-19T10:25:59.846Z,100560.06
2023-02-19T10:28:33.444Z,100561.88
2023-02-19T10:31:01.835Z,100572.47
2023-02-19T10:33:28.768Z,100568.88
2023-02-19T10:36:07.812Z,100578.44
2023-02-19T10:38:36.939Z,100570.59
2023-02-19T10:41:20.744Z,100580.16
2023-02-19T10:43:54.562Z,100586.28
2023-02-19T10:46:33.264Z,100579.13
2023-02-19T10:49:02.181Z,100574.75
2023-02-19T10:51:34.571Z,100579.03
2023-02-19T10:54:16.600Z,100589.94
2023-02-19T10:56:43.114Z,100597.41
2023-02-19T10:59:24.352Z,100610.84
2023-02-19T11:01:55.160Z,100610.31
2023-02-19T11:04:21.979Z,100613.34
2023-02-19T11:06:48.441Z,100612.50
2023-02-19T11:09:28.289Z,100618.19
2023-02-19T11:11:56.434Z,100605.13
2023-02-19T11:14:24.377Z,100618.44
2023-02-19T11:16:56.390Z,100616.94
2023-02-19T11:19:26.402Z,100620.50
2023-02-19T11:21:53.560Z,100626.59
2023-02-19T11:24:33.927Z,100625.91
2023-02-19T11:27:02.976Z,100629.59
2023-02-19T11:29:34.574Z,100623.63
2023-02-19T11:32:25.372Z,100614.81
2023-02-19T11:34:52.502Z,100611.41
2023-02-19T11:37:21.042Z,100615.97
2023-02-19T11:39:48.679Z,100628.44
2023-02-19T11:42:29.276Z,100614.16
2023-02-19T11:44:58.910Z,100608.75
2023-02-19T11:47:43.346Z,100620.28
2023-02-19T11:50:42.639Z,100629.59
2023-02-19T11:53:25.019Z,100628.28
2023-02-19T11:56:21.612Z,100619.88
2023-02-19T11:58:54.088Z,100622.34
2023-02-19T12:01:42.923Z,100627.75
2023-02-19T12:04:31.911Z,100638.44
2023-02-19T12:07:10.407Z,100649.03
2023-02-19T12:09:43.548Z,100641.81
2023-02-19T12:12:30.880Z,100642.41
2023-02-19T12:15:21.957Z,100629.66
2023-02-19T12:18:07.146Z,100630.88
2023-02-19T12:20:44.104Z,100632.03
2023-02-19T12:23:44.526Z,100637.34
2023-02-19T12:26:24.955Z,100646.25
2023-02-19T12:29:21.323Z,100638.38
2023-02-19T12:32:23.411Z,100638.28
2023-02-19T12:35:04.587Z,100630.91
2023-02-19T12:38:02.072Z,100629.66
2023-02-19T12:40:53.762Z,100623.69
2023-02-19T12:43:22.019Z,100625.97
2023-02-19T12:46:15.648Z,100628.34
2023-02-19T12:48:48.578Z,100627.38
2023-02-19T12:51:25.794Z,100627.22
2023-02-19T12:54:06.192Z,100628.72
2023-02-19T12:56:48.224Z,100627.47
2023-02-19T12:59:22.639Z,100624.00
2023-02-19T13:02:02.897Z,100616.97
2023-02-19T13:05:01.973Z,100625.59
2023-02-19T13:07:32.465Z,100606.94
2023-02-19T13:10:26.826Z,100600.53
2023-02-19T13:12:54.904Z,100604.56
2023-02-19T13:15:28.547Z,100608.56
2023-02-19T13:17:56.039Z,100604.28
2023-02-19T13:20:32.707Z,100595.66
2023-02-19T13:23:26.979Z,100607.22
2023-02-19T13:26:19.654Z,100605.34
2023-02-19T13:29:12.329Z,100604.56
2023-02-19T13:32:09.435Z,100607.22
2023-02-19T13:34:49.884Z,100607.22
2023-02-19T13:37:16.923Z,100609.03
2023-02-19T13:39:49.799Z,100605.72
2023-02-19T13:42:33.493Z,100607.44
2023-02-19T13:45:01.221Z,100599.47
2023-02-19T13:47:59.758Z,100609.03
2023-02-19T13:50:28.825Z,100602.84
2023-02-19T13:52:56.231Z,100607.31
2023-02-19T13:55:42.266Z,100613.78
2023-02-19T13:58:33.409Z,100602.50
2023-02-19T14:01:01.527Z,100604.75
2023-02-19T14:03:39.975Z,100608.28
2023-02-19T14:06:08.677Z,100623.53
2023-02-19T14:08:56.854Z,100629.88
2023-02-19T14:11:43.933Z,100629.09
2023-02-19T14:14:41.382Z,100634.88
2023-02-19T14:17:27.558Z,100640.47
2023-02-19T14:19:59.419Z,100644.22
2023-02-19T14:22:47.619Z,100641.88
2023-02-19T14:25:49.393Z,100642.81
2023-02-19T14:28:40.466Z,100649.16
2023-02-19T14:31:19.825Z,100654.63
2023-02-19T14:33:52.517Z,100648.38
2023-02-19T14:36:26.533Z,100641.09
2023-02-19T14:39:13.025Z,100642.81
2023-02-19T14:41:42.715Z,100657.69
2023-02-19T14:44:21.467Z,100650.56
2023-02-19T14:46:52.843Z,100663.72
2023-02-19T14:49:25.571Z,100658.72
2023-02-19T14:51:55.123Z,100653.56
2023-02-19T14:54:33.607Z,100660.00
2023-02-19T14:57:00.826Z,100654.03
2023-02-19T14:59:29.383Z,100661.34
2023-02-19T15:02:04.377Z,100660.47
2023-02-19T15:04:36.454Z,100658.75
2023-02-19T15:07:06.629Z,100665.88
2023-02-19T15:09:37.125Z,100660.75
2023-02-19T15:12:03.973Z,100668.72
2023-02-19T15:14:32.201Z,100656.22
2023-02-19T15:17:04.108Z,100653.66
2023-02-19T15:19:33.522Z,100661.59
2023-02-19T15:22:00.110Z,100667.69
2023-02-19T15:24:28.192Z,100669.66
2023-02-19T15:26:55.028Z,100668.97
2023-02-19T15:29:26.513Z,100672.47
2023-02-19T15:31:59.114Z,100680.41
2023-02-19T15:34:28.461Z,100683.16
2023-02-19T15:36:58.528Z,100688.34
2023-02-19T15:39:27.449Z,100684.97
2023-02-19T15:42:00.202Z,100684.19
2023-02-19T15:44:51.599Z,100687.88
2023-02-19T15:47:23.593Z,100689.47
2023-02-19T15:49:57.098Z,100695.91
2023-02-19T15:52:36.306Z,100701.09
2023-02-19T15:55:12.116Z,100706.50
2023-02-19T15:57:43.304Z,100709.59
2023-02-19T16:00:21.176Z,100733.88
2023-02-19T16:02:48.654Z,100728.56
2023-02-19T16:05:23.422Z,100724.19
2023-02-19T16:08:25.670Z,100727.69
2023-02-19T16:10:57.949Z,100705.81
2023-02-19T16:13:30.157Z,100705.56
2023-02-19T16:16:08.736Z,100705.28
2023-02-19T16:18:35.394Z,100702.72
2023-02-19T16:21:07.366Z,100695.81
2023-02-19T16:23:33.934Z,100693.94
2023-02-19T16:26:01.903Z,100684.13
2023-02-19T16:28:33.089Z,100688.56
2023-02-19T16:31:02.309Z,100686.16
2023-02-19T16:33:37.984Z,100690.53
2023-02-19T16:36:26.461Z,100689.91
2023-02-19T16:39:08.173Z,100693.75
2023-02-19T16:41:40.384Z,100701.00
2023-02-19T16:44:25.055Z,100695.09
2023-02-19T16:46:57.731Z,100694.31
2023-02-19T16:49:24.421Z,100697.88
2023-02-19T16:51:51.080Z,100699.84
2023-02-19T16:54:18.742Z,100701.63
2023-02-19T16:56:45.155Z,100717.66
2023-02-19T16:59:11.663Z,100709.78
2023-02-19T17:01:38.299Z,100711.81
2023-02-19T17:04:07.130Z,100714.47
2023-02-19T17:06:34.732Z,100716.50
2023-02-19T17:09:01.121Z,100718.31
2023-02-19T17:11:27.518Z,100723.66
2023-02-19T17:13:53.907Z,100735.16
2023-02-19T17:16:27.454Z,100743.00
2023-02-19T17:18:54.922Z,100743.00
2023-02-19T17:21:27.004Z,100754.50
2023-02-19T17:23:54.050Z,100765.09
2023-02-19T17:26:23.744Z,100759.25
2023-02-19T17:28:50.338Z,100769.75
2023-02-19T17:31:17.251Z,100777.94
2023-02-19T17:33:43.999Z,100768.41
2023-02-19T17:36:17.674Z,100773.25
2023-02-19T17:38:44.216Z,100789.47
2023-02-19T17:41:11.093Z,100800.13
2023-02-19T17:43:37.788Z,100810.00
2023-02-19T17:46:04.668Z,100800.66
2023-02-19T17:48:31.379Z,100811.91
2023-02-19T17:51:01.034Z,100805.00
2023-02-19T17:53:27.861Z,100808.44
2023-02-19T17:55:54.346Z,100818.72
2023-02-19T17:58:20.972Z,100816.06
2023-02-19T18:00:47.548Z,100820.34
2023-02-19T18:03:14.239Z,100802.84
2023-02-19T18:05:40.962Z,100815.09
2023-02-19T18:08:07.676Z,100807.91
2023-02-19T18:10:34.393Z,100799.22
2023-02-19T18:13:00.950Z,100806.13
2023-02-19T18:15:27.569Z,100812.41
2023-02-19T18:17:54.768Z,100821.09
2023-02-19T18:20:25.376Z,100828.94
2023-02-19T18:22:52.051Z,100833.22
2023-02-19T18:25:19.249Z,100833.38
2023-02-19T18:27:46.898Z,100845.44
2023-02-19T18:30:20.929Z,100851.81
2023-02-19T18:32:48.548Z,100842.47
2023-02-19T18:35:17.217Z,100842.41
2023-02-19T18:37:43.871Z,100853.72
2023-02-19T18:40:11.029Z,100867.03
2023-02-19T18:42:37.622Z,100866.31
2023-02-19T18:45:04.531Z,100870.94
2023-02-19T18:47:31.182Z,100871.09
2023-02-19T18:49:58.705Z,100870.94
2023-02-19T18:52:26.585Z,100870.03
2023-02-19T18:54:55.242Z,100871.03
2023-02-19T18:57:23.713Z,100857.91
2023-02-19T18:59:50.731Z,100868.25
2023-02-19T19:02:17.727Z,100851.81
2023-02-19T19:04:51.789Z,100860.47
2023-02-19T19:07:18.988Z,100870.09
2023-02-19T19:09:45.555Z,100870.91
2023-02-19T19:12:12.524Z,100863.31
2023-02-19T19:14:39.273Z,100862.41
2023-02-19T19:17:05.823Z,100860.66
2023-02-19T19:19:32.356Z,100857.97
2023-02-19T19:21:58.915Z,100863.09
2023-02-19T19:24:25.513Z,100860.47
2023-02-19T19:26:52.939Z,100858.75
2023-02-19T19:29:22.108Z,100860.38
2023-02-19T19:31:49.433Z,100854.38
2023-02-19T19:34:16.436Z,100862.31
2023-02-19T19:36:43.372Z,100864.91
2023-02-19T19:39:09.890Z,100857.41
2023-02-19T19:41:36.408Z,100861.75
2023-02-19T19:44:06.347Z,100872.03
2023-02-19T19:46:33.368Z,100860.66
2023-02-19T19:49:00.029Z,100872.03
2023-02-19T19:51:34.191Z,100882.59
2023-02-19T19:54:03.183Z,100893.00
2023-02-19T19:56:30.215Z,100876.75
2023-02-19T19:58:56.759Z,100864.41
2023-02-19T20:01:23.687Z,100885.16
2023-02-19T20:03:53.172Z,100867.03
2023-02-19T20:06:29.433Z,100887.50
2023-02-19T20:08:56.768Z,100864.31
2023-02-19T20:11:23.556Z,100874.69
2023-02-19T20:13:50.212Z,100869.41
2023-02-19T20:16:16.771Z,100882.41
2023-02-19T20:18:43.308Z,100892.25
2023-02-19T20:21:11.169Z,100893.88
2023-02-19T20:23:39.688Z,100891.44
2023-02-19T20:26:06.815Z,100894.97
2023-02-19T20:28:33.627Z,100897.53
2023-02-19T20:31:00.469Z,100891.44
2023-02-19T20:33:27.050Z,100885.59
2023-02-19T20:35:53.669Z,100891.44
2023-02-19T20:38:20.239Z,100884.81
2023-02-19T20:40:46.877Z,100904.94
2023-02-19T20:43:13.601Z,100884.88
2023-02-19T20:45:41.046Z,100911.84
2023-02-19T20:48:08.879Z,100888.59
2023-02-19T20:50:35.489Z,100911.22
2023-02-19T20:53:02.019Z,100900.88
2023-02-19T20:55:28.729Z,100915.72
2023-02-19T20:57:55.296Z,100917.44
2023-02-19T21:00:22.058Z,100922.41
2023-02-19T21:02:51.675Z,100918.78
2023-02-19T21:05:20.002Z,100918.00
2023-02-19T21:07:46.848Z,100909.28
2023-02-19T21:10:13.730Z,100924.69
2023-02-19T21:12:42.043Z,100922.38
2023-02-19T21:15:09.160Z,100907.72
2023-02-19T21:17:36.527Z,100907.88
2023-02-19T21:20:06.640Z,100912.09
2023-02-19T21:22:33.201Z,100893.09
2023-02-19T21:25:00.273Z,100901.72
2023-02-19T21:27:26.909Z,100911.44
2023-02-19T21:29:53.531Z,100905.44
2023-02-19T21:32:20.507Z,100908.09
2023-02-19T21:34:47.357Z,100920.28
2023-02-19T21:37:14.092Z,100922.38
2023-02-19T21:39:42.933Z,100922.13
2023-02-19T21:42:09.544Z,100928.50
2023-02-19T21:44:36.442Z,100936.41
2023-02-19T21:47:03.324Z,100931.28
2023-02-19T21:49:30.319Z,100938.13
2023-02-19T21:51:57.254Z,100928.00
2023-02-19T21:54:25.346Z,100924.47
2023-02-19T21:56:55.988Z,100937.69
2023-02-19T21:59:22.907Z,100941.19
2023-02-19T22:01:50.873Z,100931.03
2023-02-19T22:04:21.448Z,100947.16
2023-02-19T22:06:48.547Z,100944.53
2023-02-19T22:09:15.518Z,100944.53
2023-02-19T22:11:42.601Z,100936.69
2023-02-19T22:14:15.366Z,100936.84
2023-02-19T22:16:42.320Z,100941.88
2023-02-19T22:19:09.981Z,100928.13
2023-02-19T22:21:46.539Z,100923.91
2023-02-19T22:24:17.820Z,100940.31
2023-02-19T22:26:45.141Z,100950.69
2023-02-19T22:29:16.346Z,100952.59
2023-02-19T22:31:43.313Z,100954.31
2023-02-19T22:34:10.431Z,100958.72
2023-02-19T22:36:39.112Z,100950.94
2023-02-19T22:39:07.974Z,100941.38
2023-02-19T22:41:35.085Z,100951.69
2023-02-19T22:44:18.045Z,100965.78
2023-02-19T22:46:50.630Z,100968.72
2023-02-19T22:49:17.794Z,100948.84
2023-02-19T22:51:50.103Z,100954.75
2023-02-19T22:54:17.358Z,100966.06
2023-02-19T22:56:44.653Z,100958.28
2023-02-19T22:59:21.218Z,100943.66
2023-02-19T23:01:49.217Z,100967.78
2023-02-19T23:04:16.869Z,100966.88
2023-02-19T23:06:47.474Z,100966.28
2023-02-19T23:09:20.796Z,100964.22
2023-02-19T23:11:47.733Z,100955.66
2023-02-19T23:14:18.566Z,100961.72
2023-02-19T23:16:45.411Z,100956.44
2023-02-19T23:19:15.185Z,100969.50
2023-02-19T23:21:43.793Z,100972.91
2023-02-19T23:24:11.626Z,100954.59
2023-02-19T23:26:50.565Z,100948.50
2023-02-19T23:29:21.482Z,100955.59
2023-02-19T23:31:48.745Z,100950.50
2023-02-19T23:34:16.939Z,100932.38
2023-02-19T23:36:46.099Z,100952.28
2023-02-19T23:39:13.700Z,100963.56
2023-02-19T23:41:46.937Z,100960.41
2023-02-19T23:44:13.793Z,100969.19
2023-02-19T23:46:40.496Z,100965.88
2023-02-19T23:49:07.822Z,100984.16
2023-02-19T23:51:35.055Z,100973.66
2023-02-19T23:54:01.943Z,100972.97
2023-02-19T23:56:29.434Z,100988.97
2023-02-19T23:58:56.679Z,100993.19
